Terminal Aerodrome Forecast
Issued by NWS Cleveland, OH

Home | Current Version | Previous Version | Graphics & Text | Print | Product List | Glossary Off
Versions: 1 2 3 4 5 6 7 8 9 10 11 12 13 14 15 16

390
FTUS41 KCLE 261720
TAFYNG
TAF
KYNG 261720Z 2618/2718 30006KT P6SM BKN250
     FM270000 01003KT P6SM BKN250
      TEMPO 2710/2712 5SM BR
     FM271400 15006KT P6SM SCT250=

USA.gov is the U.S. government's official web portal to all federal, state and local government web resources and services.